sensor_id;sensor_type;location;lat;lon;timestamp;P1;durP1;ratioP1;P2;durP2;ratioP2
57810;SDS011;43640;47.550;7.590;2022-08-21T00:01:28;4.00;;;1.55;;
57810;SDS011;43640;47.550;7.590;2022-08-21T00:03:30;2.65;;;1.77;;
57810;SDS011;43640;47.550;7.590;2022-08-21T00:05:31;3.03;;;1.52;;
57810;SDS011;43640;47.550;7.590;2022-08-21T00:07:34;2.50;;;1.83;;
57810;SDS011;43640;47.550;7.590;2022-08-21T00:09:35;4.40;;;2.50;;
57810;SDS011;43640;47.550;7.590;2022-08-21T00:11:37;4.00;;;2.00;;
57810;SDS011;43640;47.550;7.590;2022-08-21T00:13:39;1.92;;;1.63;;
57810;SDS011;43640;47.550;7.590;2022-08-21T00:15:41;2.72;;;2.22;;
57810;SDS011;43640;47.550;7.590;2022-08-21T00:17:42;3.38;;;1.52;;
57810;SDS011;43640;47.550;7.590;2022-08-21T00:19:44;2.13;;;1.92;;
57810;SDS011;43640;47.550;7.590;2022-08-21T00:21:45;4.20;;;2.00;;
57810;SDS011;43640;47.550;7.590;2022-08-21T00:23:46;2.85;;;2.20;;
57810;SDS011;43640;47.550;7.590;2022-08-21T00:25:48;4.55;;;2.00;;
57810;SDS011;43640;47.550;7.590;2022-08-21T00:27:49;2.75;;;1.88;;
57810;SDS011;43640;47.550;7.590;2022-08-21T00:29:51;5.35;;;2.25;;
57810;SDS011;43640;47.550;7.590;2022-08-21T00:31:54;2.88;;;2.17;;
57810;SDS011;43640;47.550;7.590;2022-08-21T00:33:55;4.20;;;2.33;;
57810;SDS011;43640;47.550;7.590;2022-08-21T00:36:01;2.35;;;1.98;;
57810;SDS011;43640;47.550;7.590;2022-08-21T00:38:03;4.93;;;1.80;;
57810;SDS011;43640;47.550;7.590;2022-08-21T00:40:05;1.58;;;1.42;;
57810;SDS011;43640;47.550;7.590;2022-08-21T00:42:07;1.40;;;1.30;;
57810;SDS011;43640;47.550;7.590;2022-08-21T00:44:10;2.03;;;1.20;;
57810;SDS011;43640;47.550;7.590;2022-08-21T00:46:12;4.55;;;1.40;;
57810;SDS011;43640;47.550;7.590;2022-08-21T00:48:13;1.52;;;1.38;;
57810;SDS011;43640;47.550;7.590;2022-08-21T00:50:15;3.72;;;1.40;;
57810;SDS011;43640;47.550;7.590;2022-08-21T00:52:23;4.85;;;1.35;;
57810;SDS011;43640;47.550;7.590;2022-08-21T00:54:26;1.48;;;1.20;;
57810;SDS011;43640;47.550;7.590;2022-08-21T00:56:28;4.10;;;1.40;;
57810;SDS011;43640;47.550;7.590;2022-08-21T00:58:29;3.60;;;1.30;;
57810;SDS011;43640;47.550;7.590;2022-08-21T01:00:33;3.92;;;1.40;;
57810;SDS011;43640;47.550;7.590;2022-08-21T01:02:35;2.75;;;1.30;;
57810;SDS011;43640;47.550;7.590;2022-08-21T01:04:36;3.22;;;1.63;;
57810;SDS011;43640;47.550;7.590;2022-08-21T01:06:38;2.60;;;1.30;;
57810;SDS011;43640;47.550;7.590;2022-08-21T01:08:39;2.92;;;1.40;;
57810;SDS011;43640;47.550;7.590;2022-08-21T01:10:47;5.10;;;1.40;;
57810;SDS011;43640;47.550;7.590;2022-08-21T01:12:54;3.00;;;1.52;;
57810;SDS011;43640;47.550;7.590;2022-08-21T01:14:56;1.90;;;1.42;;
57810;SDS011;43640;47.550;7.590;2022-08-21T01:16:59;1.42;;;1.17;;
57810;SDS011;43640;47.550;7.590;2022-08-21T01:19:02;2.78;;;1.33;;
57810;SDS011;43640;47.550;7.590;2022-08-21T01:23:07;2.97;;;1.42;;
57810;SDS011;43640;47.550;7.590;2022-08-21T01:25:10;1.33;;;1.23;;
57810;SDS011;43640;47.550;7.590;2022-08-21T01:27:13;3.03;;;1.67;;
57810;SDS011;43640;47.550;7.590;2022-08-21T01:29:16;1.77;;;1.42;;
57810;SDS011;43640;47.550;7.590;2022-08-21T01:31:21;2.03;;;1.25;;
57810;SDS011;43640;47.550;7.590;2022-08-21T01:33:26;2.60;;;1.20;;
57810;SDS011;43640;47.550;7.590;2022-08-21T01:35:28;2.72;;;1.70;;
57810;SDS011;43640;47.550;7.590;2022-08-21T01:37:29;1.70;;;1.48;;
57810;SDS011;43640;47.550;7.590;2022-08-21T01:39:31;2.97;;;1.80;;
57810;SDS011;43640;47.550;7.590;2022-08-21T01:41:32;2.63;;;1.50;;
57810;SDS011;43640;47.550;7.590;2022-08-21T01:43:34;2.00;;;1.70;;
57810;SDS011;43640;47.550;7.590;2022-08-21T01:45:40;3.90;;;1.63;;
57810;SDS011;43640;47.550;7.590;2022-08-21T01:47:42;4.13;;;1.70;;
57810;SDS011;43640;47.550;7.590;2022-08-21T01:49:43;2.50;;;1.50;;
57810;SDS011;43640;47.550;7.590;2022-08-21T01:51:45;4.50;;;1.70;;
57810;SDS011;43640;47.550;7.590;2022-08-21T01:53:47;3.47;;;1.67;;
57810;SDS011;43640;47.550;7.590;2022-08-21T01:55:48;1.98;;;1.52;;
57810;SDS011;43640;47.550;7.590;2022-08-21T01:57:49;6.65;;;1.65;;
57810;SDS011;43640;47.550;7.590;2022-08-21T01:59:51;2.67;;;1.60;;
57810;SDS011;43640;47.550;7.590;2022-08-21T02:01:53;5.85;;;2.00;;
57810;SDS011;43640;47.550;7.590;2022-08-21T02:03:55;3.05;;;1.50;;
57810;SDS011;43640;47.550;7.590;2022-08-21T02:05:56;3.08;;;1.63;;
57810;SDS011;43640;47.550;7.590;2022-08-21T02:07:58;2.25;;;1.50;;
57810;SDS011;43640;47.550;7.590;2022-08-21T02:09:59;5.15;;;1.70;;
57810;SDS011;43640;47.550;7.590;2022-08-21T02:12:00;2.13;;;1.70;;
57810;SDS011;43640;47.550;7.590;2022-08-21T02:14:02;2.38;;;1.73;;
57810;SDS011;43640;47.550;7.590;2022-08-21T02:16:03;2.85;;;1.90;;
57810;SDS011;43640;47.550;7.590;2022-08-21T02:18:05;4.18;;;2.53;;
57810;SDS011;43640;47.550;7.590;2022-08-21T02:20:08;4.60;;;2.33;;
57810;SDS011;43640;47.550;7.590;2022-08-21T02:22:10;3.88;;;2.20;;
57810;SDS011;43640;47.550;7.590;2022-08-21T02:24:12;3.65;;;1.98;;
57810;SDS011;43640;47.550;7.590;2022-08-21T02:26:13;2.08;;;1.52;;
57810;SDS011;43640;47.550;7.590;2022-08-21T02:28:15;4.55;;;1.92;;
57810;SDS011;43640;47.550;7.590;2022-08-21T02:30:19;3.28;;;1.95;;
57810;SDS011;43640;47.550;7.590;2022-08-21T02:32:21;1.73;;;1.50;;
57810;SDS011;43640;47.550;7.590;2022-08-21T02:34:22;2.90;;;1.67;;
57810;SDS011;43640;47.550;7.590;2022-08-21T02:36:29;2.97;;;1.77;;
57810;SDS011;43640;47.550;7.590;2022-08-21T02:38:32;4.22;;;1.95;;
57810;SDS011;43640;47.550;7.590;2022-08-21T02:40:40;2.88;;;2.38;;
57810;SDS011;43640;47.550;7.590;2022-08-21T02:42:48;4.57;;;2.50;;
57810;SDS011;43640;47.550;7.590;2022-08-21T02:44:49;3.22;;;2.00;;
57810;SDS011;43640;47.550;7.590;2022-08-21T02:46:51;2.63;;;2.20;;
57810;SDS011;43640;47.550;7.590;2022-08-21T02:48:53;3.25;;;2.17;;
57810;SDS011;43640;47.550;7.590;2022-08-21T02:51:08;3.28;;;2.28;;
57810;SDS011;43640;47.550;7.590;2022-08-21T02:53:10;5.35;;;2.72;;
57810;SDS011;43640;47.550;7.590;2022-08-21T02:55:12;5.13;;;2.65;;
57810;SDS011;43640;47.550;7.590;2022-08-21T02:57:15;4.97;;;3.70;;
57810;SDS011;43640;47.550;7.590;2022-08-21T02:59:16;8.50;;;4.45;;
57810;SDS011;43640;47.550;7.590;2022-08-21T03:01:18;7.22;;;4.72;;
57810;SDS011;43640;47.550;7.590;2022-08-21T03:03:19;7.65;;;5.95;;
57810;SDS011;43640;47.550;7.590;2022-08-21T03:05:22;6.93;;;5.65;;
57810;SDS011;43640;47.550;7.590;2022-08-21T03:07:24;7.18;;;5.78;;
57810;SDS011;43640;47.550;7.590;2022-08-21T03:09:25;10.00;;;5.68;;
57810;SDS011;43640;47.550;7.590;2022-08-21T03:11:26;8.02;;;6.45;;
57810;SDS011;43640;47.550;7.590;2022-08-21T03:13:28;6.47;;;4.72;;
57810;SDS011;43640;47.550;7.590;2022-08-21T03:15:29;6.00;;;5.40;;
57810;SDS011;43640;47.550;7.590;2022-08-21T03:17:31;6.47;;;3.97;;
57810;SDS011;43640;47.550;7.590;2022-08-21T03:19:32;6.32;;;4.63;;
57810;SDS011;43640;47.550;7.590;2022-08-21T03:21:33;5.18;;;3.60;;
57810;SDS011;43640;47.550;7.590;2022-08-21T03:23:35;7.43;;;5.57;;
57810;SDS011;43640;47.550;7.590;2022-08-21T03:25:37;7.22;;;5.38;;
57810;SDS011;43640;47.550;7.590;2022-08-21T03:27:41;8.98;;;5.25;;
57810;SDS011;43640;47.550;7.590;2022-08-21T03:29:43;5.35;;;4.22;;
57810;SDS011;43640;47.550;7.590;2022-08-21T03:31:44;5.82;;;4.32;;
57810;SDS011;43640;47.550;7.590;2022-08-21T03:33:46;6.30;;;4.40;;
57810;SDS011;43640;47.550;7.590;2022-08-21T03:35:48;5.63;;;4.60;;
57810;SDS011;43640;47.550;7.590;2022-08-21T03:37:50;5.43;;;4.38;;
57810;SDS011;43640;47.550;7.590;2022-08-21T03:39:51;5.35;;;4.03;;
57810;SDS011;43640;47.550;7.590;2022-08-21T03:41:52;6.28;;;4.35;;
57810;SDS011;43640;47.550;7.590;2022-08-21T03:43:55;7.72;;;3.83;;
57810;SDS011;43640;47.550;7.590;2022-08-21T03:45:56;5.25;;;3.55;;
57810;SDS011;43640;47.550;7.590;2022-08-21T03:47:59;5.13;;;3.20;;
57810;SDS011;43640;47.550;7.590;2022-08-21T03:50:01;5.45;;;3.35;;
57810;SDS011;43640;47.550;7.590;2022-08-21T03:52:04;3.50;;;3.17;;
57810;SDS011;43640;47.550;7.590;2022-08-21T03:54:06;4.28;;;3.00;;
57810;SDS011;43640;47.550;7.590;2022-08-21T03:56:07;5.35;;;3.75;;
57810;SDS011;43640;47.550;7.590;2022-08-21T03:58:08;5.32;;;3.60;;
57810;SDS011;43640;47.550;7.590;2022-08-21T04:00:17;7.43;;;4.25;;
57810;SDS011;43640;47.550;7.590;2022-08-21T04:02:20;4.50;;;3.60;;
57810;SDS011;43640;47.550;7.590;2022-08-21T04:04:22;6.55;;;4.45;;
57810;SDS011;43640;47.550;7.590;2022-08-21T04:06:23;8.85;;;4.68;;
57810;SDS011;43640;47.550;7.590;2022-08-21T04:08:25;6.68;;;4.35;;
57810;SDS011;43640;47.550;7.590;2022-08-21T04:10:28;7.68;;;4.75;;
57810;SDS011;43640;47.550;7.590;2022-08-21T04:12:29;7.65;;;5.25;;
57810;SDS011;43640;47.550;7.590;2022-08-21T04:14:31;7.70;;;4.93;;
57810;SDS011;43640;47.550;7.590;2022-08-21T04:16:32;8.45;;;5.68;;
57810;SDS011;43640;47.550;7.590;2022-08-21T04:18:33;8.63;;;5.68;;
57810;SDS011;43640;47.550;7.590;2022-08-21T04:20:35;9.45;;;5.57;;
57810;SDS011;43640;47.550;7.590;2022-08-21T04:22:36;10.07;;;6.50;;
57810;SDS011;43640;47.550;7.590;2022-08-21T04:24:37;10.35;;;5.97;;
57810;SDS011;43640;47.550;7.590;2022-08-21T04:26:39;9.23;;;5.70;;
57810;SDS011;43640;47.550;7.590;2022-08-21T04:28:41;10.32;;;6.50;;
57810;SDS011;43640;47.550;7.590;2022-08-21T04:30:44;9.20;;;6.80;;
57810;SDS011;43640;47.550;7.590;2022-08-21T04:32:46;9.93;;;6.35;;
57810;SDS011;43640;47.550;7.590;2022-08-21T04:34:49;13.13;;;8.30;;
57810;SDS011;43640;47.550;7.590;2022-08-21T04:36:51;11.73;;;7.35;;
57810;SDS011;43640;47.550;7.590;2022-08-21T04:38:52;11.43;;;7.45;;
57810;SDS011;43640;47.550;7.590;2022-08-21T04:40:54;10.45;;;6.93;;
57810;SDS011;43640;47.550;7.590;2022-08-21T04:42:57;10.88;;;6.95;;
57810;SDS011;43640;47.550;7.590;2022-08-21T04:45:00;12.10;;;7.78;;
57810;SDS011;43640;47.550;7.590;2022-08-21T04:47:02;11.20;;;6.00;;
57810;SDS011;43640;47.550;7.590;2022-08-21T04:49:03;9.93;;;6.07;;
57810;SDS011;43640;47.550;7.590;2022-08-21T04:51:10;10.18;;;6.28;;
57810;SDS011;43640;47.550;7.590;2022-08-21T04:53:22;10.30;;;6.10;;
57810;SDS011;43640;47.550;7.590;2022-08-21T04:55:25;7.72;;;5.13;;
57810;SDS011;43640;47.550;7.590;2022-08-21T04:57:28;9.30;;;6.03;;
57810;SDS011;43640;47.550;7.590;2022-08-21T04:59:44;9.07;;;5.45;;
57810;SDS011;43640;47.550;7.590;2022-08-21T05:01:46;7.55;;;5.22;;
57810;SDS011;43640;47.550;7.590;2022-08-21T05:03:48;6.68;;;4.70;;
57810;SDS011;43640;47.550;7.590;2022-08-21T05:05:50;7.35;;;4.40;;
57810;SDS011;43640;47.550;7.590;2022-08-21T05:07:52;6.03;;;4.32;;
57810;SDS011;43640;47.550;7.590;2022-08-21T05:09:54;6.75;;;4.35;;
57810;SDS011;43640;47.550;7.590;2022-08-21T05:11:55;6.68;;;4.45;;
57810;SDS011;43640;47.550;7.590;2022-08-21T05:13:57;6.38;;;4.55;;
57810;SDS011;43640;47.550;7.590;2022-08-21T05:15:58;12.65;;;4.65;;
57810;SDS011;43640;47.550;7.590;2022-08-21T05:18:00;7.22;;;4.90;;
57810;SDS011;43640;47.550;7.590;2022-08-21T05:20:01;7.05;;;4.40;;
57810;SDS011;43640;47.550;7.590;2022-08-21T05:22:04;6.07;;;4.57;;
57810;SDS011;43640;47.550;7.590;2022-08-21T05:24:05;7.43;;;4.22;;
57810;SDS011;43640;47.550;7.590;2022-08-21T05:26:07;6.50;;;4.53;;
57810;SDS011;43640;47.550;7.590;2022-08-21T05:28:18;5.60;;;4.20;;
57810;SDS011;43640;47.550;7.590;2022-08-21T05:30:20;7.20;;;4.60;;
57810;SDS011;43640;47.550;7.590;2022-08-21T05:32:21;6.25;;;4.05;;
57810;SDS011;43640;47.550;7.590;2022-08-21T05:34:23;5.68;;;4.82;;
57810;SDS011;43640;47.550;7.590;2022-08-21T05:36:24;6.55;;;5.07;;
57810;SDS011;43640;47.550;7.590;2022-08-21T05:38:26;9.23;;;5.30;;
57810;SDS011;43640;47.550;7.590;2022-08-21T05:40:29;9.38;;;5.22;;
57810;SDS011;43640;47.550;7.590;2022-08-21T05:42:30;7.18;;;5.18;;
57810;SDS011;43640;47.550;7.590;2022-08-21T05:44:32;8.10;;;6.30;;
57810;SDS011;43640;47.550;7.590;2022-08-21T05:46:35;9.75;;;6.18;;
57810;SDS011;43640;47.550;7.590;2022-08-21T05:48:36;11.38;;;6.03;;
57810;SDS011;43640;47.550;7.590;2022-08-21T05:50:38;7.97;;;6.28;;
57810;SDS011;43640;47.550;7.590;2022-08-21T05:52:40;8.90;;;6.05;;
57810;SDS011;43640;47.550;7.590;2022-08-21T05:54:41;11.10;;;6.80;;
57810;SDS011;43640;47.550;7.590;2022-08-21T05:56:42;8.82;;;6.50;;
57810;SDS011;43640;47.550;7.590;2022-08-21T05:58:45;9.75;;;6.15;;
57810;SDS011;43640;47.550;7.590;2022-08-21T06:00:47;9.50;;;6.97;;
57810;SDS011;43640;47.550;7.590;2022-08-21T06:02:49;8.70;;;7.32;;
57810;SDS011;43640;47.550;7.590;2022-08-21T06:04:51;10.57;;;8.68;;
57810;SDS011;43640;47.550;7.590;2022-08-21T06:06:53;10.95;;;8.02;;
57810;SDS011;43640;47.550;7.590;2022-08-21T06:08:54;7.10;;;5.88;;
57810;SDS011;43640;47.550;7.590;2022-08-21T06:10:56;7.90;;;6.53;;
57810;SDS011;43640;47.550;7.590;2022-08-21T06:12:58;11.25;;;7.28;;
57810;SDS011;43640;47.550;7.590;2022-08-21T06:15:00;9.02;;;7.00;;
57810;SDS011;43640;47.550;7.590;2022-08-21T06:17:03;9.45;;;6.63;;
57810;SDS011;43640;47.550;7.590;2022-08-21T06:19:04;10.10;;;5.88;;
57810;SDS011;43640;47.550;7.590;2022-08-21T06:21:06;9.50;;;6.05;;
57810;SDS011;43640;47.550;7.590;2022-08-21T06:23:07;7.18;;;4.80;;
57810;SDS011;43640;47.550;7.590;2022-08-21T06:25:09;8.88;;;5.45;;
57810;SDS011;43640;47.550;7.590;2022-08-21T06:27:11;7.72;;;5.25;;
57810;SDS011;43640;47.550;7.590;2022-08-21T06:29:13;9.15;;;5.15;;
57810;SDS011;43640;47.550;7.590;2022-08-21T06:31:18;8.52;;;5.68;;
57810;SDS011;43640;47.550;7.590;2022-08-21T06:33:20;7.95;;;5.50;;
57810;SDS011;43640;47.550;7.590;2022-08-21T06:35:21;8.02;;;6.22;;
57810;SDS011;43640;47.550;7.590;2022-08-21T06:37:23;7.63;;;5.60;;
57810;SDS011;43640;47.550;7.590;2022-08-21T06:39:24;8.52;;;5.38;;
57810;SDS011;43640;47.550;7.590;2022-08-21T06:41:30;7.57;;;5.72;;
57810;SDS011;43640;47.550;7.590;2022-08-21T06:43:39;8.73;;;5.90;;
57810;SDS011;43640;47.550;7.590;2022-08-21T06:45:40;7.35;;;5.50;;
57810;SDS011;43640;47.550;7.590;2022-08-21T06:47:41;9.32;;;6.00;;
57810;SDS011;43640;47.550;7.590;2022-08-21T06:49:43;7.90;;;5.82;;
57810;SDS011;43640;47.550;7.590;2022-08-21T06:51:44;9.82;;;6.22;;
57810;SDS011;43640;47.550;7.590;2022-08-21T06:53:46;8.55;;;6.30;;
57810;SDS011;43640;47.550;7.590;2022-08-21T06:55:49;8.57;;;6.13;;
57810;SDS011;43640;47.550;7.590;2022-08-21T06:57:50;9.35;;;6.80;;
57810;SDS011;43640;47.550;7.590;2022-08-21T06:59:52;8.85;;;6.00;;
57810;SDS011;43640;47.550;7.590;2022-08-21T07:01:54;8.70;;;6.47;;
57810;SDS011;43640;47.550;7.590;2022-08-21T07:03:55;10.10;;;6.63;;
57810;SDS011;43640;47.550;7.590;2022-08-21T07:05:57;8.15;;;6.78;;
57810;SDS011;43640;47.550;7.590;2022-08-21T07:07:59;11.40;;;7.95;;
57810;SDS011;43640;47.550;7.590;2022-08-21T07:10:00;10.52;;;6.63;;
57810;SDS011;43640;47.550;7.590;2022-08-21T07:12:02;9.52;;;6.32;;
57810;SDS011;43640;47.550;7.590;2022-08-21T07:14:03;10.18;;;6.50;;
57810;SDS011;43640;47.550;7.590;2022-08-21T07:16:05;9.60;;;6.03;;
57810;SDS011;43640;47.550;7.590;2022-08-21T07:18:06;8.05;;;5.35;;
57810;SDS011;43640;47.550;7.590;2022-08-21T07:20:08;9.18;;;7.00;;
57810;SDS011;43640;47.550;7.590;2022-08-21T07:22:09;10.55;;;6.95;;
57810;SDS011;43640;47.550;7.590;2022-08-21T07:24:11;7.28;;;5.63;;
57810;SDS011;43640;47.550;7.590;2022-08-21T07:26:13;9.38;;;7.20;;
57810;SDS011;43640;47.550;7.590;2022-08-21T07:28:15;8.23;;;6.50;;
57810;SDS011;43640;47.550;7.590;2022-08-21T07:30:16;9.82;;;7.05;;
57810;SDS011;43640;47.550;7.590;2022-08-21T07:32:17;9.88;;;6.32;;
57810;SDS011;43640;47.550;7.590;2022-08-21T07:34:21;7.90;;;6.18;;
57810;SDS011;43640;47.550;7.590;2022-08-21T07:36:22;9.07;;;6.38;;
57810;SDS011;43640;47.550;7.590;2022-08-21T07:38:24;9.60;;;6.70;;
57810;SDS011;43640;47.550;7.590;2022-08-21T07:40:26;11.73;;;5.70;;
57810;SDS011;43640;47.550;7.590;2022-08-21T07:42:27;12.18;;;6.53;;
57810;SDS011;43640;47.550;7.590;2022-08-21T07:44:28;8.20;;;5.68;;
57810;SDS011;43640;47.550;7.590;2022-08-21T07:46:30;9.32;;;5.78;;
57810;SDS011;43640;47.550;7.590;2022-08-21T07:48:31;6.70;;;5.22;;
57810;SDS011;43640;47.550;7.590;2022-08-21T07:50:33;5.85;;;5.00;;
57810;SDS011;43640;47.550;7.590;2022-08-21T07:52:34;8.25;;;6.13;;
57810;SDS011;43640;47.550;7.590;2022-08-21T07:54:35;6.40;;;5.40;;
57810;SDS011;43640;47.550;7.590;2022-08-21T07:56:37;6.15;;;5.32;;
57810;SDS011;43640;47.550;7.590;2022-08-21T07:58:39;6.25;;;4.72;;
57810;SDS011;43640;47.550;7.590;2022-08-21T08:00:40;6.32;;;4.53;;
57810;SDS011;43640;47.550;7.590;2022-08-21T08:02:43;6.38;;;4.70;;
57810;SDS011;43640;47.550;7.590;2022-08-21T08:04:46;5.93;;;4.05;;
57810;SDS011;43640;47.550;7.590;2022-08-21T08:06:51;5.15;;;4.55;;
57810;SDS011;43640;47.550;7.590;2022-08-21T08:08:52;5.32;;;3.90;;
57810;SDS011;43640;47.550;7.590;2022-08-21T08:10:55;5.38;;;3.72;;
57810;SDS011;43640;47.550;7.590;2022-08-21T08:12:57;6.25;;;3.35;;
57810;SDS011;43640;47.550;7.590;2022-08-21T08:14:59;4.50;;;3.47;;
57810;SDS011;43640;47.550;7.590;2022-08-21T08:17:01;6.22;;;3.33;;
57810;SDS011;43640;47.550;7.590;2022-08-21T08:19:03;6.07;;;3.50;;
57810;SDS011;43640;47.550;7.590;2022-08-21T08:21:05;5.68;;;3.40;;
57810;SDS011;43640;47.550;7.590;2022-08-21T08:23:09;7.75;;;3.67;;
57810;SDS011;43640;47.550;7.590;2022-08-21T08:25:11;4.10;;;3.58;;
57810;SDS011;43640;47.550;7.590;2022-08-21T08:27:14;4.60;;;3.60;;
57810;SDS011;43640;47.550;7.590;2022-08-21T08:29:15;5.18;;;3.78;;
57810;SDS011;43640;47.550;7.590;2022-08-21T08:31:17;4.22;;;3.33;;
57810;SDS011;43640;47.550;7.590;2022-08-21T08:33:18;5.00;;;3.13;;
57810;SDS011;43640;47.550;7.590;2022-08-21T08:35:20;4.63;;;3.13;;
57810;SDS011;43640;47.550;7.590;2022-08-21T08:37:25;4.53;;;3.22;;
57810;SDS011;43640;47.550;7.590;2022-08-21T08:39:34;6.28;;;3.40;;
57810;SDS011;43640;47.550;7.590;2022-08-21T08:41:36;5.22;;;3.95;;
57810;SDS011;43640;47.550;7.590;2022-08-21T08:43:39;4.28;;;3.30;;
57810;SDS011;43640;47.550;7.590;2022-08-21T08:45:44;4.63;;;3.60;;
57810;SDS011;43640;47.550;7.590;2022-08-21T08:47:47;4.28;;;3.40;;
57810;SDS011;43640;47.550;7.590;2022-08-21T08:49:55;4.55;;;3.25;;
57810;SDS011;43640;47.550;7.590;2022-08-21T08:52:01;3.75;;;3.10;;
57810;SDS011;43640;47.550;7.590;2022-08-21T08:54:04;4.97;;;3.58;;
57810;SDS011;43640;47.550;7.590;2022-08-21T08:56:07;4.95;;;3.65;;
57810;SDS011;43640;47.550;7.590;2022-08-21T08:58:24;3.25;;;2.83;;
57810;SDS011;43640;47.550;7.590;2022-08-21T09:00:27;5.13;;;3.78;;
57810;SDS011;43640;47.550;7.590;2022-08-21T09:02:28;5.47;;;4.20;;
57810;SDS011;43640;47.550;7.590;2022-08-21T09:04:30;5.05;;;3.50;;
57810;SDS011;43640;47.550;7.590;2022-08-21T09:14:58;3.97;;;2.75;;
57810;SDS011;43640;47.550;7.590;2022-08-21T09:26:04;3.90;;;2.50;;
57810;SDS011;43640;47.550;7.590;2022-08-21T09:28:11;3.13;;;2.50;;
57810;SDS011;43640;47.550;7.590;2022-08-21T09:30:15;3.42;;;2.75;;
57810;SDS011;43640;47.550;7.590;2022-08-21T09:34:26;2.50;;;2.30;;
57810;SDS011;43640;47.550;7.590;2022-08-21T09:38:41;4.40;;;2.88;;
57810;SDS011;43640;47.550;7.590;2022-08-21T09:40:43;2.80;;;2.25;;
57810;SDS011;43640;47.550;7.590;2022-08-21T09:42:53;3.97;;;2.67;;
57810;SDS011;43640;47.550;7.590;2022-08-21T09:45:05;2.30;;;2.10;;
57810;SDS011;43640;47.550;7.590;2022-08-21T09:47:07;3.72;;;2.40;;
57810;SDS011;43640;47.550;7.590;2022-08-21T09:49:09;3.88;;;2.30;;
57810;SDS011;43640;47.550;7.590;2022-08-21T09:51:26;4.15;;;1.80;;
57810;SDS011;43640;47.550;7.590;2022-08-21T09:53:29;1.70;;;1.60;;
57810;SDS011;43640;47.550;7.590;2022-08-21T09:55:46;1.83;;;1.50;;
57810;SDS011;43640;47.550;7.590;2022-08-21T09:58:08;2.90;;;1.73;;
57810;SDS011;43640;47.550;7.590;2022-08-21T10:02:30;1.60;;;1.50;;
57810;SDS011;43640;47.550;7.590;2022-08-21T10:04:34;1.50;;;1.40;;
57810;SDS011;43640;47.550;7.590;2022-08-21T10:06:36;1.77;;;1.50;;
57810;SDS011;43640;47.550;7.590;2022-08-21T10:08:38;1.65;;;1.30;;
57810;SDS011;43640;47.550;7.590;2022-08-21T10:10:40;1.45;;;1.30;;
57810;SDS011;43640;47.550;7.590;2022-08-21T10:17:04;3.40;;;1.58;;
57810;SDS011;43640;47.550;7.590;2022-08-21T10:21:20;2.13;;;1.50;;
57810;SDS011;43640;47.550;7.590;2022-08-21T10:25:52;2.03;;;1.40;;
57810;SDS011;43640;47.550;7.590;2022-08-21T10:30:19;3.03;;;2.15;;
57810;SDS011;43640;47.550;7.590;2022-08-21T10:32:26;1.50;;;1.20;;
57810;SDS011;43640;47.550;7.590;2022-08-21T10:34:36;1.58;;;1.45;;
57810;SDS011;43640;47.550;7.590;2022-08-21T10:36:45;1.30;;;1.20;;
57810;SDS011;43640;47.550;7.590;2022-08-21T10:41:24;1.17;;;1.00;;
57810;SDS011;43640;47.550;7.590;2022-08-21T10:43:33;2.08;;;1.52;;
57810;SDS011;43640;47.550;7.590;2022-08-21T10:45:39;2.72;;;1.33;;
57810;SDS011;43640;47.550;7.590;2022-08-21T10:56:14;2.00;;;1.75;;
57810;SDS011;43640;47.550;7.590;2022-08-21T10:58:40;1.38;;;1.10;;
57810;SDS011;43640;47.550;7.590;2022-08-21T11:00:40;1.38;;;1.13;;
57810;SDS011;43640;47.550;7.590;2022-08-21T11:06:52;2.15;;;1.50;;
57810;SDS011;43640;47.550;7.590;2022-08-21T11:08:58;1.52;;;1.27;;
57810;SDS011;43640;47.550;7.590;2022-08-21T11:13:11;1.63;;;1.30;;
57810;SDS011;43640;47.550;7.590;2022-08-21T11:17:31;1.88;;;1.33;;
57810;SDS011;43640;47.550;7.590;2022-08-21T11:19:53;1.42;;;1.10;;
57810;SDS011;43640;47.550;7.590;2022-08-21T11:26:10;2.00;;;1.30;;
57810;SDS011;43640;47.550;7.590;2022-08-21T11:28:28;1.50;;;1.25;;
57810;SDS011;43640;47.550;7.590;2022-08-21T11:30:39;1.60;;;1.40;;
57810;SDS011;43640;47.550;7.590;2022-08-21T11:39:44;1.33;;;1.23;;
57810;SDS011;43640;47.550;7.590;2022-08-21T11:41:54;2.08;;;1.27;;
57810;SDS011;43640;47.550;7.590;2022-08-21T11:44:02;2.00;;;1.20;;
57810;SDS011;43640;47.550;7.590;2022-08-21T11:46:23;1.52;;;1.33;;
57810;SDS011;43640;47.550;7.590;2022-08-21T11:50:33;4.50;;;1.30;;
57810;SDS011;43640;47.550;7.590;2022-08-21T11:52:39;1.75;;;1.48;;
57810;SDS011;43640;47.550;7.590;2022-08-21T11:54:46;2.47;;;1.08;;
57810;SDS011;43640;47.550;7.590;2022-08-21T11:56:54;1.60;;;1.33;;
57810;SDS011;43640;47.550;7.590;2022-08-21T11:58:57;1.23;;;1.13;;
57810;SDS011;43640;47.550;7.590;2022-08-21T12:01:01;2.33;;;1.30;;
57810;SDS011;43640;47.550;7.590;2022-08-21T12:05:30;2.35;;;1.33;;
57810;SDS011;43640;47.550;7.590;2022-08-21T12:07:37;2.17;;;1.40;;
57810;SDS011;43640;47.550;7.590;2022-08-21T12:09:38;1.65;;;1.30;;
57810;SDS011;43640;47.550;7.590;2022-08-21T12:11:47;1.60;;;1.50;;
57810;SDS011;43640;47.550;7.590;2022-08-21T12:16:07;1.67;;;1.58;;
57810;SDS011;43640;47.550;7.590;2022-08-21T12:18:21;1.45;;;1.35;;
57810;SDS011;43640;47.550;7.590;2022-08-21T12:20:33;1.52;;;1.40;;
57810;SDS011;43640;47.550;7.590;2022-08-21T12:22:39;3.55;;;1.70;;
57810;SDS011;43640;47.550;7.590;2022-08-21T12:24:43;2.95;;;1.35;;
57810;SDS011;43640;47.550;7.590;2022-08-21T12:26:52;1.48;;;1.38;;
57810;SDS011;43640;47.550;7.590;2022-08-21T12:29:04;1.85;;;1.30;;
57810;SDS011;43640;47.550;7.590;2022-08-21T12:31:16;2.25;;;1.17;;
57810;SDS011;43640;47.550;7.590;2022-08-21T12:33:19;1.42;;;1.10;;
57810;SDS011;43640;47.550;7.590;2022-08-21T12:35:24;3.75;;;1.40;;
57810;SDS011;43640;47.550;7.590;2022-08-21T12:37:42;1.30;;;1.17;;
57810;SDS011;43640;47.550;7.590;2022-08-21T12:39:44;2.53;;;1.30;;
57810;SDS011;43640;47.550;7.590;2022-08-21T12:41:49;1.40;;;1.15;;
57810;SDS011;43640;47.550;7.590;2022-08-21T12:43:56;1.00;;;1.00;;
57810;SDS011;43640;47.550;7.590;2022-08-21T12:45:58;1.30;;;1.20;;
57810;SDS011;43640;47.550;7.590;2022-08-21T12:50:05;1.70;;;1.55;;
57810;SDS011;43640;47.550;7.590;2022-08-21T12:52:10;1.52;;;1.15;;
57810;SDS011;43640;47.550;7.590;2022-08-21T12:54:21;1.48;;;1.10;;
57810;SDS011;43640;47.550;7.590;2022-08-21T12:56:23;1.02;;;0.95;;
57810;SDS011;43640;47.550;7.590;2022-08-21T12:58:25;1.58;;;1.10;;
57810;SDS011;43640;47.550;7.590;2022-08-21T13:00:28;1.10;;;1.00;;
57810;SDS011;43640;47.550;7.590;2022-08-21T13:02:42;1.00;;;0.90;;
57810;SDS011;43640;47.550;7.590;2022-08-21T13:04:44;1.83;;;0.98;;
57810;SDS011;43640;47.550;7.590;2022-08-21T13:06:47;1.52;;;0.98;;
57810;SDS011;43640;47.550;7.590;2022-08-21T13:08:52;0.85;;;0.85;;
57810;SDS011;43640;47.550;7.590;2022-08-21T13:10:57;1.65;;;0.80;;
57810;SDS011;43640;47.550;7.590;2022-08-21T13:13:10;0.95;;;0.95;;
57810;SDS011;43640;47.550;7.590;2022-08-21T13:15:13;1.92;;;1.00;;
57810;SDS011;43640;47.550;7.590;2022-08-21T13:17:21;0.90;;;0.80;;
57810;SDS011;43640;47.550;7.590;2022-08-21T13:19:26;2.03;;;1.10;;
57810;SDS011;43640;47.550;7.590;2022-08-21T13:21:29;1.20;;;1.10;;
57810;SDS011;43640;47.550;7.590;2022-08-21T13:23:31;2.42;;;1.05;;
57810;SDS011;43640;47.550;7.590;2022-08-21T13:25:34;1.60;;;1.10;;
57810;SDS011;43640;47.550;7.590;2022-08-21T13:27:36;1.20;;;0.98;;
57810;SDS011;43640;47.550;7.590;2022-08-21T13:29:38;1.50;;;1.20;;
57810;SDS011;43640;47.550;7.590;2022-08-21T13:31:39;1.52;;;1.23;;
57810;SDS011;43640;47.550;7.590;2022-08-21T13:33:43;1.90;;;1.45;;
57810;SDS011;43640;47.550;7.590;2022-08-21T13:35:52;3.33;;;1.40;;
57810;SDS011;43640;47.550;7.590;2022-08-21T13:37:58;1.42;;;1.33;;
57810;SDS011;43640;47.550;7.590;2022-08-21T13:40:00;1.48;;;1.20;;